Time;durP1;ratioP1;P1;durP2;ratioP2;P2;SDS_P1;SDS_P2;PMS_P1;PMS_P2;Temp;Humidity;BMP_temperature;BMP_pressure;BME280_temperature;BME280_humidity;BME280_pressure;Samples;Min_cycle;Max_cycle;Signal;HPM_P1;HPM_P2
2022/12/28 00:02:24;;;;;;;29.10;18.30;;;;;;;2.44;70.19;101206.30;108788;1273;23575;-77
2022/12/28 00:04:53;;;;;;;28.70;17.60;;;;;;;2.43;70.21;101207.65;108652;1273;21954;-77
2022/12/28 00:07:23;;;;;;;28.10;19.60;;;;;;;2.43;70.27;101207.99;108883;1274;22313;-77
2022/12/28 00:09:53;;;;;;;24.50;17.80;;;;;;;2.43;70.34;101203.52;108704;1274;21940;-77
2022/12/28 00:12:23;;;;;;;23.20;16.40;;;;;;;2.42;70.29;101203.35;108842;1274;21977;-76
2022/12/28 00:14:55;;;;;;;22.80;15.70;;;;;;;2.40;70.35;101206.77;108884;1271;23068;-76
2022/12/28 00:17:24;;;;;;;21.80;16.20;;;;;;;2.39;70.30;101198.85;108864;1274;21928;-77
2022/12/28 00:19:54;;;;;;;29.30;19.00;;;;;;;2.39;70.47;101193.54;108837;1274;23633;-77
2022/12/28 00:22:27;;;;;;;26.30;15.90;;;;;;;2.43;70.62;101196.31;108874;1274;21996;-77
2022/12/28 00:24:56;;;;;;;26.20;18.10;;;;;;;2.46;70.56;101201.67;108869;1274;21973;-76
2022/12/28 00:27:26;;;;;;;30.20;17.10;;;;;;;2.47;70.72;101202.36;108890;1274;21931;-76
2022/12/28 00:29:55;;;;;;;22.90;15.50;;;;;;;2.50;70.77;101202.56;108720;1274;22676;-78
2022/12/28 00:32:28;;;;;;;33.10;16.80;;;;;;;2.54;70.81;101196.92;108884;1272;21912;-76
2022/12/28 00:34:58;;;;;;;21.50;14.50;;;;;;;2.58;70.87;101196.63;108843;1274;22020;-76
2022/12/28 00:37:28;;;;;;;24.90;14.30;;;;;;;2.62;70.72;101194.08;108913;1272;21978;-76
2022/12/28 00:39:58;;;;;;;22.60;13.70;;;;;;;2.62;70.59;101195.79;108704;1274;21950;-76
2022/12/28 00:42:28;;;;;;;21.10;13.10;;;;;;;2.60;70.47;101194.58;108926;1272;23578;-77
2022/12/28 00:44:58;;;;;;;19.40;12.90;;;;;;;2.56;70.32;101195.91;108456;1279;22730;-76
2022/12/28 00:47:28;;;;;;;24.40;14.50;;;;;;;2.51;70.23;101197.08;108425;1280;22467;-76
2022/12/28 00:49:57;;;;;;;21.50;14.60;;;;;;;2.47;70.26;101196.02;108495;1279;22776;-77
2022/12/28 00:52:27;;;;;;;22.40;14.60;;;;;;;2.44;70.26;101187.21;108480;1279;23070;-76
2022/12/28 00:54:57;;;;;;;23.40;13.50;;;;;;;2.41;70.25;101185.48;108062;1285;22000;-76
2022/12/28 00:57:27;;;;;;;23.10;14.70;;;;;;;2.35;70.19;101184.91;107674;1288;23069;-75
2022/12/28 00:59:56;;;;;;;25.90;14.50;;;;;;;2.30;70.24;101183.31;107456;1288;23590;-75
2022/12/28 01:02:26;;;;;;;21.70;14.00;;;;;;;2.28;70.29;101188.79;107320;1289;23892;-76
2022/12/28 01:04:55;;;;;;;22.30;14.40;;;;;;;2.26;70.38;101194.95;107722;1289;22361;-76
2022/12/28 01:07:24;;;;;;;19.30;13.10;;;;;;;2.22;70.34;101197.14;107735;1289;22858;-76
2022/12/28 01:09:53;;;;;;;20.90;13.40;;;;;;;2.16;70.31;101199.66;107725;1286;21966;-76
2022/12/28 01:12:23;;;;;;;23.60;13.10;;;;;;;2.13;70.51;101194.98;107742;1285;21968;-76
2022/12/28 01:14:52;;;;;;;23.80;12.80;;;;;;;2.11;70.55;101192.92;108121;1280;21942;-76
2022/12/28 01:17:22;;;;;;;22.00;14.30;;;;;;;2.12;70.72;101189.48;108463;1279;23636;-76
2022/12/28 01:19:54;;;;;;;22.20;12.90;;;;;;;2.11;70.67;101189.30;108522;1274;21935;-77
2022/12/28 01:22:23;;;;;;;25.00;14.50;;;;;;;2.11;70.70;101182.95;108479;1280;24352;-77
2022/12/28 01:24:53;;;;;;;20.60;13.10;;;;;;;2.10;70.79;101178.31;108330;1277;21932;-76
2022/12/28 01:27:24;;;;;;;19.90;13.40;;;;;;;2.11;70.89;101168.53;108527;1279;22473;-77
2022/12/28 01:29:53;;;;;;;21.60;13.40;;;;;;;2.11;70.89;101165.27;108548;1277;22727;-78
2022/12/28 01:32:24;;;;;;;24.80;14.50;;;;;;;2.08;70.66;101161.80;108597;1277;22119;-78
2022/12/28 01:34:54;;;;;;;26.50;14.60;;;;;;;2.03;70.72;101163.30;108553;1279;21938;-78
2022/12/28 01:37:24;;;;;;;21.60;14.80;;;;;;;2.00;70.79;101166.02;108504;1279;23055;-77
2022/12/28 01:39:54;;;;;;;24.90;14.00;;;;;;;1.96;70.94;101171.46;108600;1274;21921;-78
2022/12/28 01:42:23;;;;;;;18.00;13.30;;;;;;;1.91;70.99;101169.19;108914;1274;21924;-78
2022/12/28 01:44:55;;;;;;;25.50;16.40;;;;;;;1.86;70.98;101159.17;108859;1273;21931;-76
2022/12/28 01:47:33;;;;;;;22.10;15.00;;;;;;;1.82;71.08;101148.14;108690;1274;23777;-77
2022/12/28 01:50:14;;;;;;;20.80;14.20;;;;;;;1.79;71.14;101142.62;108918;1274;23572;-77
2022/12/28 01:53:00;;;;;;;22.50;14.70;;;;;;;1.77;71.18;101141.23;108719;1274;21935;-76
2022/12/28 01:55:34;;;;;;;28.70;16.30;;;;;;;1.74;71.33;101140.51;108629;1273;22384;-77
2022/12/28 01:58:15;;;;;;;23.70;16.00;;;;;;;1.72;71.31;101139.63;108862;1274;21927;-78
2022/12/28 02:00:45;;;;;;;28.60;15.60;;;;;;;1.71;71.27;101141.84;108684;1274;23020;-77
2022/12/28 02:03:25;;;;;;;25.50;16.00;;;;;;;1.70;71.21;101141.48;108668;1274;23668;-77
2022/12/28 02:06:01;;;;;;;25.50;17.20;;;;;;;1.66;71.15;101136.98;108687;1274;22825;-76
2022/12/28 02:08:45;;;;;;;23.40;18.10;;;;;;;1.63;71.18;101131.29;108738;1274;22284;-77
2022/12/28 02:11:18;;;;;;;29.60;20.00;;;;;;;1.59;71.27;101132.45;108688;1274;21931;-76
2022/12/28 02:13:50;;;;;;;;;;;;;;;1.53;71.37;101123.29;108887;1274;21941;-76
2022/12/28 02:16:23;;;;;;;28.50;19.50;;;;;;;1.40;71.52;101116.95;108612;1274;21997;-76
2022/12/28 02:18:53;;;;;;;28.50;19.20;;;;;;;1.37;71.69;101112.96;108865;1273;21922;-78
2022/12/28 02:21:42;;;;;;;30.40;19.70;;;;;;;1.35;71.77;101105.41;108892;1273;21909;-78
2022/12/28 02:24:52;;;;;;;23.60;18.70;;;;;;;1.32;71.81;101100.73;108840;1273;24383;-76
2022/12/28 02:28:27;;;;;;;27.00;19.30;;;;;;;1.27;71.96;101101.04;108926;1272;21926;-78
2022/12/28 02:31:10;;;;;;;28.40;20.20;;;;;;;1.23;72.02;101096.69;108800;1274;22131;-77
2022/12/28 02:34:03;;;;;;;30.40;22.40;;;;;;;1.18;72.02;101088.23;108700;1274;22069;-78
2022/12/28 02:36:41;;;;;;;32.30;22.10;;;;;;;1.14;72.08;101087.31;108818;1274;21931;-77
2022/12/28 02:39:24;;;;;;;36.70;24.40;;;;;;;1.12;72.13;101089.02;108706;1274;22388;-77
2022/12/28 02:41:55;;;;;;;33.00;24.40;;;;;;;1.11;72.09;101088.65;107800;1274;1281394;-77
2022/12/28 02:50:08;;;;;;;28.80;22.10;;;;;;;1.01;72.26;101081.13;108759;1274;23596;-77
2022/12/28 02:52:43;;;;;;;30.00;22.40;;;;;;;0.96;72.25;101074.73;108718;1274;23674;-77
2022/12/28 02:56:07;;;;;;;32.70;23.90;;;;;;;0.91;72.25;101071.94;108974;1272;22014;-77
2022/12/28 02:59:04;;;;;;;29.10;23.90;;;;;;;0.86;72.48;101071.70;108862;1274;22796;-78
2022/12/28 03:01:53;;;;;;;29.10;23.30;;;;;;;0.87;72.69;101073.59;108734;1274;21928;-78
2022/12/28 03:04:39;;;;;;;31.00;23.60;;;;;;;0.89;72.70;101066.40;108702;1274;21922;-77
2022/12/28 03:10:20;;;;;;;29.70;25.00;;;;;;;0.89;72.76;101059.21;108824;1274;21913;-75
2022/12/28 03:13:00;;;;;;;31.60;26.30;;;;;;;0.88;72.74;101056.80;108839;1274;21934;-76
2022/12/28 03:15:37;;;;;;;29.40;25.40;;;;;;;0.88;72.76;101052.19;108680;1274;22556;-75
2022/12/28 03:32:47;;;;;;;30.70;23.10;;;;;;;0.88;72.97;101041.90;108760;1274;23026;-77
2022/12/28 03:35:19;;;;;;;28.80;23.80;;;;;;;0.88;72.99;101036.75;108772;1274;21932;-76
2022/12/28 03:37:57;;;;;;;;;;;;;;;0.88;72.94;101036.25;108796;1274;22779;-77
2022/12/28 03:40:46;;;;;;;28.70;23.00;;;;;;;0.81;73.09;101027.41;108770;1274;22989;-77
2022/12/28 03:43:43;;;;;;;36.20;25.60;;;;;;;0.78;73.15;101024.47;108661;1276;21914;-76
2022/12/28 03:46:30;;;;;;;36.50;25.00;;;;;;;0.73;73.03;101020.63;108904;1269;21925;-76
2022/12/28 03:49:01;;;;;;;34.70;25.40;;;;;;;0.68;73.13;101017.83;108949;1272;23136;-77
2022/12/28 03:51:32;;;;;;;30.50;22.70;;;;;;;0.69;73.20;101019.55;108794;1274;23672;-76
2022/12/28 03:54:17;;;;;;;34.30;23.50;;;;;;;0.71;73.24;101019.58;108686;1271;21960;-77
2022/12/28 03:56:50;;;;;;;33.70;24.40;;;;;;;0.71;73.12;101023.52;108943;1274;23707;-78
2022/12/28 03:59:22;;;;;;;33.90;23.50;;;;;;;0.72;73.06;101020.79;108791;1274;23676;-77
2022/12/28 04:01:52;;;;;;;34.20;23.80;;;;;;;0.71;73.07;101017.53;108724;1272;21941;-77
2022/12/28 04:04:22;;;;;;;33.90;24.50;;;;;;;0.71;73.04;101013.76;108853;1274;23620;-77
2022/12/28 04:06:52;;;;;;;29.00;22.90;;;;;;;0.68;72.98;101003.43;108711;1274;21933;-77
2022/12/28 04:09:21;;;;;;;34.00;24.50;;;;;;;0.68;73.02;100994.36;108855;1274;21917;-77
2022/12/28 04:11:51;;;;;;;33.30;24.10;;;;;;;0.66;72.98;100994.68;108561;1277;22025;-76
2022/12/28 04:14:26;;;;;;;29.90;23.30;;;;;;;0.65;72.99;100997.73;108605;1277;21953;-78
2022/12/28 04:16:56;;;;;;;33.10;24.00;;;;;;;0.64;73.04;101000.46;108648;1277;21933;-78
2022/12/28 04:19:26;;;;;;;27.50;23.10;;;;;;;0.62;73.03;101003.69;108697;1277;21972;-77
2022/12/28 04:21:56;;;;;;;28.60;23.10;;;;;;;0.61;72.99;101001.29;108506;1280;24045;-77
2022/12/28 04:24:25;;;;;;;33.10;22.90;;;;;;;0.60;73.11;100996.65;108190;1280;21959;-79
2022/12/28 04:26:54;;;;;;;26.80;20.90;;;;;;;0.60;73.12;100992.89;108342;1280;23019;-76
2022/12/28 04:29:24;;;;;;;28.10;22.50;;;;;;;0.59;73.06;100984.64;108341;1277;21937;-76
2022/12/28 04:32:04;;;;;;;26.70;20.60;;;;;;;0.57;73.17;100977.08;108565;1277;23735;-77
2022/12/28 04:34:33;;;;;;;23.50;19.80;;;;;;;0.56;73.22;100975.52;108512;1277;23590;-76
2022/12/28 04:37:09;;;;;;;28.20;19.80;;;;;;;0.55;73.25;100972.60;108370;1277;21926;-76
2022/12/28 04:39:38;;;;;;;30.30;22.80;;;;;;;0.54;73.31;100968.48;108583;1276;23788;-76
2022/12/28 04:42:25;;;;;;;29.40;22.20;;;;;;;0.51;73.27;100968.63;108905;1274;21974;-76
2022/12/28 04:44:54;;;;;;;26.60;21.40;;;;;;;0.48;73.24;100971.82;108826;1269;21964;-77
2022/12/28 04:47:23;;;;;;;28.70;21.30;;;;;;;0.44;73.35;100968.52;108877;1274;21960;-76
2022/12/28 04:49:52;;;;;;;36.00;25.60;;;;;;;0.41;73.54;100967.63;108990;1272;21927;-76
2022/12/28 04:52:22;;;;;;;39.00;31.20;;;;;;;0.40;73.62;100966.74;108945;1272;21914;-77
2022/12/28 04:54:51;;;;;;;40.70;31.90;;;;;;;0.41;73.71;100963.35;108602;1277;22204;-76
2022/12/28 04:57:20;;;;;;;35.90;31.30;;;;;;;0.43;73.74;100959.95;108865;1273;23597;-75
2022/12/28 04:59:49;;;;;;;40.50;28.80;;;;;;;0.41;73.59;100954.26;108631;1271;22263;-76
2022/12/28 05:02:19;;;;;;;35.80;27.00;;;;;;;0.37;73.69;100950.61;108637;1274;21921;-77
2022/12/28 05:04:48;;;;;;;31.70;25.10;;;;;;;0.34;73.79;100951.09;108681;1274;21929;-77
2022/12/28 05:07:17;;;;;;;31.90;23.90;;;;;;;0.32;73.88;100949.52;108690;1274;22617;-77
2022/12/28 05:09:46;;;;;;;29.90;22.90;;;;;;;0.32;73.98;100946.60;108858;1274;23000;-76
2022/12/28 05:12:15;;;;;;;36.30;24.60;;;;;;;0.32;74.10;100942.33;108651;1274;23810;-76
2022/12/28 05:14:45;;;;;;;29.30;24.30;;;;;;;0.33;74.16;100937.05;108642;1273;21998;-76
2022/12/28 05:17:14;;;;;;;33.70;26.20;;;;;;;0.34;74.22;100927.98;108703;1273;22162;-76
2022/12/28 05:19:43;;;;;;;28.50;24.20;;;;;;;0.33;74.28;100924.02;108697;1274;21964;-77
2022/12/28 05:22:14;;;;;;;34.00;26.50;;;;;;;0.31;74.35;100920.41;108711;1274;23664;-76
2022/12/28 05:24:45;;;;;;;32.70;27.00;;;;;;;0.31;74.31;100910.47;109033;1274;21964;-76
2022/12/28 05:27:14;;;;;;;32.00;28.40;;;;;;;0.33;74.46;100905.53;108686;1274;22222;-77
2022/12/28 05:29:43;;;;;;;33.20;27.70;;;;;;;0.37;74.48;100902.68;108661;1276;23046;-77
2022/12/28 05:32:13;;;;;;;34.50;30.00;;;;;;;0.42;74.48;100902.23;108865;1274;22159;-78
2022/12/28 05:34:46;;;;;;;33.90;27.10;;;;;;;0.47;74.62;100900.56;108870;1269;21993;-78
2022/12/28 05:37:19;;;;;;;;;;;;;;;0.52;74.70;100898.92;108856;1274;22422;-77
2022/12/28 05:39:50;;;;;;;31.80;25.20;;;;;;;0.50;74.87;100897.70;108993;1272;22184;-77
2022/12/28 05:42:19;;;;;;;35.30;25.60;;;;;;;0.53;74.87;100894.82;108699;1274;21936;-77
2022/12/28 05:44:51;;;;;;;37.20;27.00;;;;;;;0.57;74.76;100893.50;108735;1273;23670;-76
2022/12/28 05:47:21;;;;;;;46.80;30.50;;;;;;;0.60;74.76;100894.73;108880;1274;21973;-76
2022/12/28 05:49:50;;;;;;;49.10;33.70;;;;;;;0.62;74.65;100896.46;108800;1274;23677;-78
2022/12/28 05:52:20;;;;;;;50.90;34.00;;;;;;;0.63;74.60;100892.19;108534;1277;21982;-76
2022/12/28 05:54:49;;;;;;;44.90;28.70;;;;;;;0.63;74.52;100885.52;108578;1278;21940;-78
2022/12/28 05:57:19;;;;;;;40.10;26.70;;;;;;;0.63;74.59;100879.70;108640;1280;23607;-79
2022/12/28 05:59:48;;;;;;;41.20;27.60;;;;;;;0.64;74.55;100874.21;108664;1277;23093;-76
2022/12/28 06:02:17;;;;;;;39.70;25.30;;;;;;;0.65;74.52;100878.01;108629;1271;21943;-80
2022/12/28 06:04:53;;;;;;;40.20;24.00;;;;;;;0.65;74.47;100879.54;108609;1278;21952;-78
2022/12/28 06:07:22;;;;;;;41.50;25.50;;;;;;;0.66;74.46;100880.41;108665;1278;22832;-79
2022/12/28 06:09:51;;;;;;;46.80;31.00;;;;;;;0.70;74.50;100880.13;108547;1271;22500;-76
2022/12/28 06:12:21;;;;;;;34.60;28.70;;;;;;;0.75;74.47;100871.09;108862;1274;23081;-76
2022/12/28 06:14:50;;;;;;;31.60;26.80;;;;;;;0.77;74.45;100869.41;108806;1274;23019;-76
2022/12/28 06:17:19;;;;;;;37.40;27.80;;;;;;;0.80;74.44;100864.64;108951;1271;21922;-76
2022/12/28 06:19:48;;;;;;;36.50;26.90;;;;;;;0.83;74.44;100863.13;108633;1271;22897;-77
2022/12/28 06:22:17;;;;;;;38.70;28.10;;;;;;;0.84;74.46;100864.00;108721;1271;23633;-77
2022/12/28 06:24:46;;;;;;;37.60;26.70;;;;;;;0.84;74.27;100860.22;109046;1271;21943;-77
2022/12/28 06:27:16;;;;;;;41.00;28.10;;;;;;;0.83;74.28;100851.30;108884;1271;21941;-78
2022/12/28 06:29:45;;;;;;;38.30;30.80;;;;;;;0.81;74.27;100845.45;108859;1271;21927;-77
2022/12/28 06:32:14;;;;;;;45.60;35.00;;;;;;;0.81;74.32;100845.45;108800;1271;23596;-77
2022/12/28 06:34:43;;;;;;;64.40;47.70;;;;;;;0.80;74.34;100841.33;108602;1277;21945;-77
2022/12/28 06:37:15;;;;;;;70.80;44.30;;;;;;;0.76;74.32;100841.80;108527;1279;22211;-77
2022/12/28 06:39:46;;;;;;;82.40;52.30;;;;;;;0.76;74.46;100844.20;108694;1276;22405;-77
2022/12/28 06:42:15;;;;;;;55.10;34.90;;;;;;;0.76;74.51;100842.84;108588;1278;23583;-76
2022/12/28 06:44:47;;;;;;;;;;;;;;;0.75;74.58;100843.50;108627;1278;21954;-76
2022/12/28 06:47:17;;;;;;;31.40;20.80;;;;;;;0.68;74.68;100839.67;108616;1273;23750;-77
2022/12/28 06:49:47;;;;;;;34.20;19.80;;;;;;;0.67;74.77;100840.34;108157;1283;21942;-76
2022/12/28 06:52:16;;;;;;;31.60;22.10;;;;;;;0.68;74.78;100842.23;108304;1280;23676;-76
2022/12/28 06:54:46;;;;;;;43.70;29.30;;;;;;;0.69;74.82;100843.27;108497;1277;22706;-77
2022/12/28 06:57:15;;;;;;;50.50;32.80;;;;;;;0.71;74.77;100836.61;108514;1278;21954;-77
2022/12/28 06:59:46;;;;;;;43.80;28.70;;;;;;;0.74;74.80;100834.77;108359;1278;23613;-79
2022/12/28 07:02:15;;;;;;;48.70;32.70;;;;;;;0.78;74.91;100831.20;108357;1273;23592;-78
2022/12/28 07:04:45;;;;;;;45.30;27.90;;;;;;;0.84;74.98;100832.11;108819;1279;21945;-82
2022/12/28 07:07:15;;;;;;;52.40;30.20;;;;;;;0.90;75.01;100833.71;108681;1275;21934;-81
2022/12/28 07:09:45;;;;;;;40.40;24.40;;;;;;;0.94;74.79;100829.29;109221;1271;23669;-78
2022/12/28 07:12:14;;;;;;;38.20;24.50;;;;;;;0.95;74.73;100824.34;108656;1276;22211;-78
2022/12/28 07:14:43;;;;;;;40.40;25.60;;;;;;;0.97;74.82;100820.23;108565;1279;21934;-77
2022/12/28 07:17:13;;;;;;;36.70;25.20;;;;;;;0.96;74.78;100816.13;108638;1277;23607;-80
2022/12/28 07:19:43;;;;;;;34.40;24.60;;;;;;;0.98;74.81;100813.91;108495;1280;21933;-79
2022/12/28 07:22:15;;;;;;;38.10;25.50;;;;;;;0.97;74.79;100809.27;108423;1280;22300;-79
2022/12/28 07:24:47;;;;;;;48.40;29.60;;;;;;;0.97;74.78;100809.95;108549;1278;21986;-78
2022/12/28 07:27:19;;;;;;;45.10;28.00;;;;;;;0.99;74.82;100810.32;108240;1283;21950;-79
2022/12/28 07:29:48;;;;;;;41.30;28.90;;;;;;;1.02;75.02;100808.29;108280;1279;21936;-79
2022/12/28 07:32:17;;;;;;;45.50;32.30;;;;;;;1.07;75.04;100811.75;108539;1277;22129;-79
2022/12/28 07:34:46;;;;;;;50.50;36.70;;;;;;;1.10;74.91;100811.27;108440;1278;21924;-78
2022/12/28 07:37:16;;;;;;;61.70;45.60;;;;;;;1.14;74.92;100807.88;108555;1278;24282;-79
2022/12/28 07:39:45;;;;;;;61.70;44.90;;;;;;;1.21;75.07;100809.81;108635;1277;21954;-78
2022/12/28 07:42:14;;;;;;;52.10;41.20;;;;;;;1.28;74.98;100814.33;108644;1278;23587;-78
2022/12/28 07:44:44;;;;;;;51.60;42.60;;;;;;;1.33;75.01;100813.33;108572;1277;23094;-79
2022/12/28 07:47:17;;;;;;;50.20;40.30;;;;;;;1.42;75.17;100813.06;108776;1276;22200;-78
2022/12/28 07:49:46;;;;;;;39.50;30.20;;;;;;;1.52;75.26;100815.70;108944;1275;22671;-79
2022/12/28 07:52:15;;;;;;;32.80;25.00;;;;;;;1.61;75.36;100809.59;108766;1275;23778;-77
2022/12/28 07:54:45;;;;;;;26.30;20.00;;;;;;;1.71;75.49;100805.69;108887;1274;23669;-78
2022/12/28 07:57:14;;;;;;;27.90;18.50;;;;;;;1.83;75.43;100803.18;109066;1275;21918;-79
2022/12/28 07:59:43;;;;;;;24.80;16.00;;;;;;;1.92;75.39;100796.36;109134;1274;21926;-79
2022/12/28 08:02:13;;;;;;;24.00;13.70;;;;;;;2.01;75.39;100792.28;109155;1274;22148;-79
2022/12/28 08:04:45;;;;;;;24.40;14.80;;;;;;;2.11;75.39;100791.81;109133;1275;21921;-78
2022/12/28 08:07:20;;;;;;;21.90;14.20;;;;;;;2.22;75.17;100797.70;108990;1275;22111;-78
2022/12/28 08:09:50;;;;;;;18.00;13.10;;;;;;;2.30;75.10;100800.65;108947;1277;23601;-80
2022/12/28 08:12:20;;;;;;;23.40;13.90;;;;;;;2.41;74.95;100800.67;108741;1276;24043;-79
2022/12/28 08:14:49;;;;;;;22.20;12.90;;;;;;;2.48;74.78;100803.27;108747;1277;21935;-78
2022/12/28 08:17:18;;;;;;;21.20;12.70;;;;;;;2.56;74.72;100802.26;108952;1272;21921;-78
2022/12/28 08:19:49;;;;;;;14.30;10.00;;;;;;;2.65;74.67;100804.50;109000;1274;21922;-79
2022/12/28 08:22:20;;;;;;;19.80;10.40;;;;;;;2.77;74.46;100804.19;108534;1277;22876;-78
2022/12/28 08:24:54;;;;;;;15.60;10.10;;;;;;;2.82;74.28;100804.55;108604;1278;22993;-79
2022/12/28 08:27:24;;;;;;;;;;;;;;;2.89;74.19;100805.41;108598;1278;21918;-76
2022/12/28 08:29:53;;;;;;;16.80;9.80;;;;;;;2.90;74.07;100802.31;108613;1278;21930;-78
2022/12/28 08:32:23;;;;;;;15.60;10.50;;;;;;;2.91;73.67;100801.13;108531;1277;22169;-78
2022/12/28 08:34:52;;;;;;;13.70;9.90;;;;;;;2.96;73.64;100801.47;108612;1280;23083;-78
2022/12/28 08:37:22;;;;;;;20.50;13.00;;;;;;;3.04;73.53;100799.90;108496;1282;23589;-78
2022/12/28 08:39:51;;;;;;;17.70;12.60;;;;;;;3.12;73.44;100796.80;108527;1275;23036;-79
2022/12/28 08:42:20;;;;;;;21.10;12.70;;;;;;;3.19;73.12;100799.74;109002;1274;22385;-78
2022/12/28 08:44:50;;;;;;;19.20;14.30;;;;;;;3.24;72.80;100801.11;108572;1281;23585;-79
2022/12/28 08:47:20;;;;;;;25.00;16.50;;;;;;;3.27;72.81;100800.08;108613;1278;21941;-79
2022/12/28 08:49:49;;;;;;;17.00;12.50;;;;;;;3.35;72.71;100792.33;108444;1281;21932;-78
2022/12/28 08:52:18;;;;;;;18.90;13.00;;;;;;;3.41;72.13;100788.53;108216;1273;23051;-78
2022/12/28 08:54:48;;;;;;;19.50;14.70;;;;;;;3.39;71.80;100781.65;108275;1285;21958;-77
2022/12/28 08:57:17;;;;;;;22.40;16.60;;;;;;;3.37;71.71;100776.50;108388;1280;23086;-79
2022/12/28 08:59:47;;;;;;;24.20;13.80;;;;;;;3.41;71.61;100772.02;108241;1283;22270;-78
2022/12/28 09:02:16;;;;;;;20.60;14.70;;;;;;;3.46;71.67;100769.95;108383;1280;21926;-78
2022/12/28 09:04:46;;;;;;;25.10;16.30;;;;;;;3.46;71.29;100771.16;108597;1281;23082;-78
2022/12/28 09:07:15;;;;;;;27.00;19.10;;;;;;;3.46;71.07;100774.59;108547;1269;23766;-78
2022/12/28 09:09:45;;;;;;;38.30;19.20;;;;;;;3.45;70.92;100774.24;108523;1279;24344;-79
2022/12/28 09:12:14;;;;;;;21.00;16.60;;;;;;;3.47;70.91;100775.28;108628;1270;21942;-79
2022/12/28 09:14:43;;;;;;;26.70;17.10;;;;;;;3.47;70.55;100769.25;108846;1275;23601;-79
2022/12/28 09:17:13;;;;;;;31.80;17.40;;;;;;;3.45;70.61;100762.55;108733;1275;23755;-78
2022/12/28 09:19:43;;;;;;;25.20;16.70;;;;;;;3.49;70.68;100758.41;109065;1273;22045;-78
2022/12/28 09:22:14;;;;;;;30.40;20.40;;;;;;;3.55;70.88;100757.54;109064;1275;22691;-78
2022/12/28 09:24:43;;;;;;;33.00;24.40;;;;;;;3.69;71.18;100749.92;109285;1272;24123;-77
2022/12/28 09:27:13;;;;;;;32.50;24.50;;;;;;;3.81;70.76;100740.59;109142;1274;22039;-78
2022/12/28 09:29:42;;;;;;;18.80;15.10;;;;;;;3.91;70.69;100732.98;109412;1274;23616;-78
2022/12/28 09:32:11;;;;;;;28.40;17.60;;;;;;;3.99;70.51;100727.27;109502;1272;24282;-78
2022/12/28 09:34:44;;;;;;;18.90;14.30;;;;;;;4.10;70.33;100728.23;109266;1275;21939;-81
2022/12/28 09:37:14;;;;;;;20.20;14.80;;;;;;;4.18;69.90;100730.09;109419;1275;21899;-78
2022/12/28 09:39:43;;;;;;;20.60;12.90;;;;;;;4.18;69.07;100726.13;109033;1275;23013;-78
2022/12/28 09:42:24;;;;;;;21.20;12.50;;;;;;;4.15;68.76;100723.56;109211;1274;21928;-80
2022/12/28 09:45:11;;;;;;;29.50;17.00;;;;;;;4.18;69.24;100721.31;109111;1272;22383;-78
2022/12/28 09:47:50;;;;;;;21.00;15.30;;;;;;;4.15;68.53;100719.42;109047;1275;24364;-78
2022/12/28 09:50:33;;;;;;;23.20;16.40;;;;;;;4.06;68.33;100713.10;108814;1275;21971;-78
2022/12/28 09:53:35;;;;;;;25.30;15.50;;;;;;;4.02;68.40;100710.36;108922;1275;21923;-79
2022/12/28 09:56:33;;;;;;;22.20;16.20;;;;;;;3.97;68.39;100700.75;109043;1275;21947;-78
2022/12/28 09:59:06;;;;;;;19.50;13.90;;;;;;;3.94;68.17;100696.62;109212;1272;22730;-76
2022/12/28 10:01:40;;;;;;;18.20;12.80;;;;;;;3.98;68.37;100690.75;108890;1275;21938;-82
2022/12/28 10:04:12;;;;;;;16.80;12.20;;;;;;;4.03;68.21;100691.42;109080;1275;23684;-79
2022/12/28 10:06:43;;;;;;;20.90;13.70;;;;;;;4.07;68.11;100691.05;108799;1275;23569;-77
2022/12/28 10:09:27;;;;;;;19.00;12.30;;;;;;;4.10;67.94;100690.34;108697;1275;23774;-73
2022/12/28 10:12:00;;;;;;;16.90;11.80;;;;;;;4.13;67.87;100684.83;108947;1274;21961;-73
2022/12/28 10:14:34;;;;;;;23.60;16.10;;;;;;;4.19;67.96;100679.45;108827;1274;21911;-74
2022/12/28 10:17:06;;;;;;;27.60;18.30;;;;;;;4.24;67.94;100676.30;108786;1275;21952;-75
2022/12/28 10:19:35;;;;;;;36.20;24.00;;;;;;;4.29;67.89;100663.17;108920;1275;21937;-73
2022/12/28 10:22:09;;;;;;;21.30;17.40;;;;;;;4.36;67.73;100661.75;108874;1272;21966;-75
2022/12/28 10:24:39;;;;;;;21.90;14.50;;;;;;;4.39;67.45;100657.07;108912;1273;23747;-76
2022/12/28 10:27:28;;;;;;;20.70;13.00;;;;;;;4.43;67.43;100651.01;108893;1272;21992;-77
2022/12/28 10:30:01;;;;;;;31.70;21.30;;;;;;;4.44;67.05;100647.90;108743;1275;22917;-79
2022/12/28 10:32:51;;;;;;;27.00;17.60;;;;;;;4.47;67.39;100649.60;109195;1270;22059;-77
2022/12/28 10:35:55;;;;;;;20.80;13.30;;;;;;;4.59;67.58;100640.02;108862;1274;21921;-79
2022/12/28 10:38:50;;;;;;;20.70;12.90;;;;;;;4.69;67.22;100635.97;109137;1271;23807;-79
2022/12/28 10:41:39;;;;;;;14.20;10.30;;;;;;;4.70;66.80;100633.89;108812;1276;21929;-78
2022/12/28 10:44:27;;;;;;;22.30;16.00;;;;;;;4.76;66.80;100625.05;108976;1272;21944;-79
2022/12/28 10:47:44;;;;;;;23.70;15.10;;;;;;;4.90;66.84;100619.39;108944;1275;21922;-79
2022/12/28 10:51:12;;;;;;;26.80;16.00;;;;;;;4.95;66.56;100615.02;108824;1274;21922;-79
2022/12/28 10:53:59;;;;;;;26.00;17.90;;;;;;;5.12;66.29;100608.64;108904;1275;22830;-78
2022/12/28 10:56:43;;;;;;;21.50;15.90;;;;;;;5.41;66.49;100600.70;109050;1275;23704;-76
2022/12/28 10:59:12;;;;;;;25.00;16.10;;;;;;;5.70;66.34;100598.77;108988;1272;21924;-77
2022/12/28 11:01:43;;;;;;;37.10;25.90;;;;;;;5.98;66.12;100586.30;109058;1274;23046;-81
2022/12/28 11:04:23;;;;;;;23.90;17.00;;;;;;;6.20;65.02;100581.31;109180;1270;22786;-78
2022/12/28 11:07:01;;;;;;;32.30;23.90;;;;;;;6.19;63.90;100577.70;108674;1278;23717;-77
2022/12/28 11:09:34;;;;;;;29.80;21.40;;;;;;;6.04;63.47;100569.11;108762;1272;21933;-79
2022/12/28 11:12:27;;;;;;;23.80;15.60;;;;;;;5.88;63.33;100566.02;108858;1280;23094;-80
2022/12/28 11:15:00;;;;;;;25.00;16.40;;;;;;;5.70;63.37;100565.44;108701;1279;23132;-78
2022/12/28 11:17:36;;;;;;;28.00;18.30;;;;;;;5.65;63.61;100560.34;108616;1279;23094;-77
2022/12/28 11:20:18;;;;;;;25.90;16.10;;;;;;;5.62;63.65;100554.66;108703;1275;21936;-79
2022/12/28 11:22:53;;;;;;;30.10;20.50;;;;;;;5.62;63.87;100546.22;108673;1279;21971;-78
2022/12/28 11:25:34;;;;;;;18.60;12.50;;;;;;;5.60;63.50;100545.20;109044;1273;21928;-78
2022/12/28 11:28:21;;;;;;;17.60;11.60;;;;;;;5.60;63.62;100539.34;108728;1272;21990;-79
2022/12/28 11:30:55;;;;;;;14.90;11.10;;;;;;;5.62;63.59;100536.20;109055;1273;22229;-79
2022/12/28 11:33:43;;;;;;;15.90;10.50;;;;;;;5.63;63.53;100532.55;109036;1272;21940;-80
2022/12/28 11:36:25;;;;;;;16.70;10.30;;;;;;;5.63;63.55;100530.82;108943;1274;22116;-79
2022/12/28 11:39:24;;;;;;;17.30;11.40;;;;;;;5.64;63.23;100527.02;108741;1278;21967;-79
2022/12/28 11:41:58;;;;;;;22.70;14.50;;;;;;;5.62;63.20;100522.56;108739;1278;23602;-80
2022/12/28 11:44:50;;;;;;;30.40;25.20;;;;;;;5.62;63.19;100519.80;108656;1278;23011;-78
2022/12/28 11:47:35;;;;;;;20.20;14.10;;;;;;;5.61;63.03;100513.59;108797;1279;22840;-81
2022/12/28 11:50:35;;;;;;;20.70;13.20;;;;;;;5.57;62.84;100504.69;108751;1286;21972;-81
2022/12/28 11:53:32;;;;;;;21.10;14.00;;;;;;;5.59;62.95;100500.67;107729;1292;21940;-78
2022/12/28 11:56:08;;;;;;;14.40;11.20;;;;;;;5.60;62.78;100498.25;107441;1295;21991;-79
2022/12/28 11:58:41;;;;;;;16.70;11.00;;;;;;;5.59;62.69;100494.65;107821;1289;21976;-79
2022/12/28 12:01:34;;;;;;;16.40;10.20;;;;;;;5.59;62.58;100489.48;107843;1289;21957;-78
2022/12/28 12:04:03;;;;;;;32.90;21.40;;;;;;;5.56;62.60;100481.39;107985;1289;22671;-79
2022/12/28 12:06:46;;;;;;;44.30;25.00;;;;;;;5.64;63.11;100473.31;107913;1289;21968;-79
2022/12/28 12:09:20;;;;;;;33.90;22.30;;;;;;;5.76;63.14;100470.54;107630;1292;23693;-79